DAOY

El Bayadh Airport

El Bayadh, Algeria
METAR DAOY 172000Z 02014KT 9999 FEW020 01/M02 Q1026
Observed Flight Rules
Dec-17 @ 20:00 UTC (an hour ago) Visual Flight Rules
Wind Visibility Clouds
20° at 14 knots 10,000+ meters
  • Few at 2,000' AGL
Temperatures Readings
Current 1°C / 34°F
Dewpoint -2°C / 28°F
Humidity 81%
Altimeter 30.3" Hg
Pressure 1026 hPa
Elevation 1347
METAR DAOY 172000Z 02014KT 9999 FEW020 01/M02 Q1026
Observed Flight Rules
Dec-17 @ 20:00 UTC
(an hour ago)
VFR
Wind Visibility
20° at 14 knots 10,000+ meters
Clouds
  • Few at 2,000' AGL
Temperature Dewpoint
1°C / 34°F -2°C / 28°F
Humidity Altimeter Pressure
81% 30.3" Hg 1026 hPa